createdAt,value
2022-12-19T00:00:28.525Z,48.48
2022-12-19T00:01:28.546Z,45.41
2022-12-19T00:02:28.572Z,60.31
2022-12-19T00:03:28.619Z,48.01
2022-12-19T00:04:28.523Z,42.31
2022-12-19T00:05:28.499Z,46.02
2022-12-19T00:06:28.483Z,51.75
2022-12-19T00:07:28.472Z,48.02
2022-12-19T00:08:28.464Z,54.60
2022-12-19T00:09:28.573Z,55.83
2022-12-19T00:10:28.450Z,48.25
2022-12-19T00:11:28.443Z,55.56
2022-12-19T00:12:28.438Z,46.30
2022-12-19T00:13:29.572Z,43.09
2022-12-19T00:14:28.445Z,40.71
2022-12-19T00:15:28.510Z,50.39
2022-12-19T00:16:28.527Z,59.17
2022-12-19T00:17:28.400Z,44.37
2022-12-19T00:18:28.393Z,42.51
2022-12-19T00:19:28.410Z,42.45
2022-12-19T00:20:28.381Z,42.34
2022-12-19T00:21:28.371Z,42.14
2022-12-19T00:22:28.364Z,41.51
2022-12-19T00:23:28.355Z,41.08
2022-12-19T00:24:28.369Z,46.35
2022-12-19T00:25:28.420Z,42.35
2022-12-19T00:26:28.331Z,54.21
2022-12-19T00:27:28.324Z,51.89
2022-12-19T00:28:28.316Z,45.52
2022-12-19T00:29:28.330Z,46.71
2022-12-19T00:30:28.301Z,55.93
2022-12-19T00:31:28.355Z,52.24
2022-12-19T00:32:28.288Z,58.17
2022-12-19T00:33:28.280Z,44.89
2022-12-19T00:34:28.302Z,47.05
2022-12-19T00:35:28.268Z,51.78
2022-12-19T00:36:28.259Z,62.55
2022-12-19T00:37:28.253Z,44.84
2022-12-19T00:38:28.268Z,42.88
2022-12-19T00:39:28.263Z,44.66
2022-12-19T00:40:28.227Z,53.39
2022-12-19T00:41:28.294Z,40.57
2022-12-19T00:42:28.218Z,49.47
2022-12-19T00:43:28.210Z,42.83
2022-12-19T00:44:28.229Z,49.41
2022-12-19T00:45:28.226Z,50.36
2022-12-19T00:46:28.188Z,53.49
2022-12-19T00:47:28.183Z,49.25
2022-12-19T00:48:28.171Z,41.64
2022-12-19T00:49:28.161Z,49.48
2022-12-19T00:50:28.186Z,45.78
2022-12-19T00:51:28.169Z,44.81
2022-12-19T00:52:28.142Z,59.06
2022-12-19T00:53:28.131Z,52.04
2022-12-19T00:54:28.161Z,50.67
2022-12-19T00:55:28.140Z,55.07
2022-12-19T00:56:28.106Z,41.90
2022-12-19T00:57:28.175Z,43.15
2022-12-19T00:58:28.097Z,50.51
2022-12-19T00:59:28.087Z,53.12
2022-12-19T01:00:28.109Z,46.83
2022-12-19T01:01:28.178Z,43.96
2022-12-19T01:02:28.130Z,49.15
2022-12-19T01:03:28.057Z,53.77
2022-12-19T01:04:29.258Z,41.88
2022-12-19T01:05:29.081Z,41.47
2022-12-19T01:06:28.034Z,49.03
2022-12-19T01:07:28.034Z,44.64
2022-12-19T01:08:28.022Z,49.81
2022-12-19T01:09:28.014Z,43.21
2022-12-19T01:10:28.029Z,42.18
2022-12-19T01:11:27.999Z,43.58
2022-12-19T01:12:27.995Z,53.70
2022-12-19T01:13:28.059Z,42.15
2022-12-19T01:14:27.978Z,42.65
2022-12-19T01:15:27.999Z,42.34
2022-12-19T01:16:28.116Z,41.43
2022-12-19T01:17:27.960Z,41.72
2022-12-19T01:18:27.950Z,43.30
2022-12-19T01:19:27.939Z,48.99
2022-12-19T01:20:29.919Z,48.65
2022-12-19T01:21:27.923Z,55.46
2022-12-19T01:22:27.915Z,47.76
2022-12-19T01:23:27.907Z,49.05
2022-12-19T01:24:27.904Z,43.70
2022-12-19T01:25:27.919Z,44.41
2022-12-19T01:26:27.887Z,47.76
2022-12-19T01:27:27.880Z,46.58
2022-12-19T01:28:27.876Z,43.79
2022-12-19T01:29:27.941Z,50.70
2022-12-19T01:30:29.107Z,46.84
2022-12-19T01:31:27.932Z,47.66
2022-12-19T01:32:27.846Z,43.93
2022-12-19T01:33:27.831Z,46.77
2022-12-19T01:34:27.827Z,43.29
2022-12-19T01:35:27.845Z,52.53
2022-12-19T01:36:27.807Z,48.65
2022-12-19T01:37:27.804Z,43.18
2022-12-19T01:38:27.793Z,46.70
2022-12-19T01:39:27.795Z,50.00
2022-12-19T01:40:27.812Z,47.15
2022-12-19T01:41:27.776Z,63.95
2022-12-19T01:42:27.768Z,52.64
2022-12-19T01:43:27.765Z,47.86
2022-12-19T01:44:27.750Z,53.68
2022-12-19T01:45:33.929Z,55.60
2022-12-19T01:46:29.784Z,56.63
2022-12-19T01:47:27.732Z,53.86
2022-12-19T01:48:27.722Z,51.11
2022-12-19T01:49:27.719Z,50.54
2022-12-19T01:50:27.737Z,56.55
2022-12-19T01:51:27.706Z,56.36
2022-12-19T01:52:27.695Z,45.98
2022-12-19T01:53:27.688Z,45.93
2022-12-19T01:54:27.684Z,45.81
2022-12-19T01:55:27.700Z,58.76
2022-12-19T01:56:27.643Z,49.71
2022-12-19T01:57:27.630Z,49.32
2022-12-19T01:58:27.624Z,48.52
2022-12-19T01:59:27.614Z,58.71
2022-12-19T02:00:27.634Z,54.11
2022-12-19T02:01:27.798Z,50.73
2022-12-19T02:02:27.680Z,46.15
2022-12-19T02:03:27.622Z,54.40
2022-12-19T02:04:28.978Z,58.26
2022-12-19T02:05:28.605Z,45.19
2022-12-19T02:06:28.566Z,46.73
2022-12-19T02:07:27.559Z,44.77
2022-12-19T02:08:27.559Z,48.45
2022-12-19T02:09:27.549Z,48.33
2022-12-19T02:10:27.564Z,57.79
2022-12-19T02:11:27.533Z,60.42
2022-12-19T02:12:27.524Z,56.17
2022-12-19T02:13:27.517Z,43.95
2022-12-19T02:14:27.509Z,45.32
2022-12-19T02:15:27.536Z,54.68
2022-12-19T02:16:30.288Z,45.61
2022-12-19T02:17:27.562Z,50.43
2022-12-19T02:18:27.484Z,52.98
2022-12-19T02:19:27.471Z,43.11
2022-12-19T02:20:27.508Z,54.03
2022-12-19T02:21:27.460Z,48.79
2022-12-19T02:22:27.455Z,55.05
2022-12-19T02:23:27.446Z,55.86
2022-12-19T02:24:27.454Z,44.08
2022-12-19T02:25:27.432Z,42.62
2022-12-19T02:26:27.756Z,54.75
2022-12-19T02:27:27.419Z,62.15
2022-12-19T02:28:27.413Z,49.89
2022-12-19T02:29:27.407Z,45.65
2022-12-19T02:30:27.404Z,47.30
2022-12-19T02:31:27.461Z,52.88
2022-12-19T02:32:27.376Z,51.20
2022-12-19T02:33:28.459Z,43.30
2022-12-19T02:34:27.377Z,43.37
2022-12-19T02:35:27.367Z,43.61
2022-12-19T02:36:27.388Z,47.70
2022-12-19T02:37:27.355Z,60.44
2022-12-19T02:38:27.349Z,56.04
2022-12-19T02:39:29.615Z,44.68
2022-12-19T02:40:27.333Z,48.15
2022-12-19T02:41:27.345Z,47.19
2022-12-19T02:42:28.318Z,44.98
2022-12-19T02:43:27.311Z,45.72
2022-12-19T02:44:27.314Z,49.62
2022-12-19T02:45:28.475Z,46.42
2022-12-19T02:46:27.348Z,42.31
2022-12-19T02:47:27.288Z,55.73
2022-12-19T02:48:27.280Z,53.51
2022-12-19T02:49:30.935Z,47.11
2022-12-19T02:50:27.268Z,51.24
2022-12-19T02:51:27.290Z,53.47
2022-12-19T02:52:27.254Z,46.01
2022-12-19T02:53:27.252Z,46.44
2022-12-19T02:54:27.243Z,43.29
2022-12-19T02:55:27.234Z,43.10
2022-12-19T02:56:27.257Z,48.84
2022-12-19T02:57:28.227Z,52.17
2022-12-19T02:58:27.228Z,51.24
2022-12-19T02:59:27.210Z,51.44
2022-12-19T03:00:27.208Z,53.67
2022-12-19T03:01:27.311Z,58.02
2022-12-19T03:02:27.253Z,55.45
2022-12-19T03:03:27.244Z,56.12
2022-12-19T03:04:27.175Z,55.00
2022-12-19T03:05:27.254Z,46.75
2022-12-19T03:06:27.186Z,48.64
2022-12-19T03:07:27.158Z,55.02
2022-12-19T03:08:27.154Z,57.70
2022-12-19T03:09:27.145Z,53.97
2022-12-19T03:10:27.134Z,49.61
2022-12-19T03:11:27.153Z,58.31
2022-12-19T03:12:27.122Z,49.19
2022-12-19T03:13:27.115Z,54.80
2022-12-19T03:14:27.111Z,49.88
2022-12-19T03:15:27.108Z,44.48
2022-12-19T03:16:27.163Z,54.19
2022-12-19T03:17:27.082Z,61.20
2022-12-19T03:18:27.079Z,49.19
2022-12-19T03:19:27.076Z,50.85
2022-12-19T03:20:27.065Z,43.96
2022-12-19T03:21:27.081Z,46.64
2022-12-19T03:22:27.049Z,42.32
2022-12-19T03:23:27.037Z,41.90
2022-12-19T03:24:27.034Z,54.06
2022-12-19T03:25:27.033Z,54.51
2022-12-19T03:26:27.056Z,57.88
2022-12-19T03:27:27.007Z,43.62
2022-12-19T03:28:27.005Z,44.19
2022-12-19T03:29:26.993Z,52.10
2022-12-19T03:30:28.020Z,61.88
2022-12-19T03:31:26.983Z,62.73
2022-12-19T03:32:27.005Z,47.47
2022-12-19T03:33:26.970Z,56.99
2022-12-19T03:34:26.961Z,48.29
2022-12-19T03:35:26.953Z,55.38
2022-12-19T03:36:26.953Z,46.02
2022-12-19T03:37:27.053Z,47.40
2022-12-19T03:38:26.939Z,53.19
2022-12-19T03:39:26.931Z,53.03
2022-12-19T03:40:26.928Z,52.22
2022-12-19T03:41:26.910Z,43.81
2022-12-19T03:42:26.935Z,48.14
2022-12-19T03:43:26.898Z,48.47
2022-12-19T03:44:26.889Z,51.40
2022-12-19T03:45:26.889Z,57.06
2022-12-19T03:46:26.935Z,57.42
2022-12-19T03:47:26.899Z,61.57
2022-12-19T03:48:26.862Z,55.04
2022-12-19T03:49:26.861Z,55.27
2022-12-19T03:50:26.846Z,48.84
2022-12-19T03:51:26.840Z,56.34
2022-12-19T03:52:26.867Z,57.81
2022-12-19T03:53:26.908Z,55.05
2022-12-19T03:54:26.816Z,53.28
2022-12-19T03:55:26.806Z,53.30
2022-12-19T03:56:26.818Z,55.13
2022-12-19T03:57:26.820Z,56.08
2022-12-19T03:58:26.792Z,55.56
2022-12-19T03:59:26.786Z,49.58
2022-12-19T04:00:26.774Z,58.56
2022-12-19T04:01:26.838Z,54.01
2022-12-19T04:02:26.838Z,59.44
2022-12-19T04:03:26.837Z,59.10
2022-12-19T04:04:26.746Z,60.66
2022-12-19T04:05:26.745Z,54.44
2022-12-19T04:06:26.733Z,58.84
2022-12-19T04:07:26.751Z,59.89
2022-12-19T04:08:26.720Z,60.38
2022-12-19T04:09:26.712Z,55.75
2022-12-19T04:10:26.700Z,61.73
2022-12-19T04:11:26.693Z,57.70
2022-12-19T04:12:26.712Z,61.17
2022-12-19T04:13:26.679Z,58.44
2022-12-19T04:14:26.673Z,56.24
2022-12-19T04:15:26.736Z,60.07
2022-12-19T04:16:26.666Z,59.30
2022-12-19T04:17:26.675Z,63.49
2022-12-19T04:18:26.643Z,59.37
2022-12-19T04:19:26.729Z,61.66
2022-12-19T04:20:26.625Z,56.34
2022-12-19T04:21:26.618Z,55.60
2022-12-19T04:22:26.638Z,59.53
2022-12-19T04:23:26.607Z,55.71
2022-12-19T04:24:26.598Z,57.29
2022-12-19T04:25:29.538Z,58.52
2022-12-19T04:26:27.588Z,59.44
2022-12-19T04:27:26.608Z,56.62
2022-12-19T04:28:26.605Z,56.90
2022-12-19T04:29:26.559Z,59.99
2022-12-19T04:30:26.556Z,60.45
2022-12-19T04:31:26.580Z,58.67
2022-12-19T04:32:26.564Z,58.87
2022-12-19T04:33:26.539Z,60.66
2022-12-19T04:34:26.523Z,57.17
2022-12-19T04:35:26.520Z,61.77
2022-12-19T04:36:26.511Z,56.19
2022-12-19T04:37:26.539Z,58.60
2022-12-19T04:38:26.495Z,57.52
2022-12-19T04:39:26.484Z,52.32
2022-12-19T04:40:26.477Z,57.05
2022-12-19T04:41:26.549Z,50.84
2022-12-19T04:42:26.497Z,60.00
2022-12-19T04:43:26.450Z,58.07
2022-12-19T04:44:26.445Z,58.06
2022-12-19T04:45:26.437Z,54.94
2022-12-19T04:46:26.440Z,55.34
2022-12-19T04:47:26.422Z,59.96
2022-12-19T04:48:26.437Z,57.15
2022-12-19T04:49:26.406Z,58.78
2022-12-19T04:50:26.398Z,55.65
2022-12-19T04:51:26.392Z,60.48
2022-12-19T04:52:26.389Z,60.28
2022-12-19T04:53:26.406Z,55.14
2022-12-19T04:54:26.372Z,58.11
2022-12-19T04:55:26.369Z,56.44
2022-12-19T04:56:26.354Z,58.49
2022-12-19T04:57:26.439Z,54.84
2022-12-19T04:58:26.377Z,46.76
2022-12-19T04:59:26.334Z,58.91
2022-12-19T05:00:26.324Z,61.42
2022-12-19T05:01:26.370Z,52.60
2022-12-19T05:02:26.596Z,59.67
2022-12-19T05:03:26.380Z,56.79
2022-12-19T05:04:26.302Z,59.31
2022-12-19T05:05:26.294Z,61.02
2022-12-19T05:06:26.287Z,54.38
2022-12-19T05:07:26.289Z,61.68
2022-12-19T05:08:26.296Z,56.59
2022-12-19T05:09:26.260Z,57.61
2022-12-19T05:10:26.291Z,59.54
2022-12-19T05:11:26.249Z,56.81
2022-12-19T05:12:26.243Z,59.31
2022-12-19T05:13:26.341Z,61.56
2022-12-19T05:14:26.229Z,61.59
2022-12-19T05:15:26.224Z,60.23
2022-12-19T05:16:26.264Z,60.15
2022-12-19T05:17:26.198Z,64.09
2022-12-19T05:18:26.219Z,56.24
2022-12-19T05:19:26.190Z,62.06
2022-12-19T05:20:26.194Z,59.75
2022-12-19T05:21:26.174Z,61.17
2022-12-19T05:22:26.163Z,59.31
2022-12-19T05:23:26.187Z,58.25
2022-12-19T05:24:26.154Z,60.22
2022-12-19T05:25:26.142Z,63.30
2022-12-19T05:26:26.138Z,59.95
2022-12-19T05:27:26.128Z,57.90
2022-12-19T05:28:26.147Z,60.09
2022-12-19T05:29:26.193Z,64.65
2022-12-19T05:30:26.111Z,56.39
2022-12-19T05:31:26.152Z,60.04
2022-12-19T05:32:26.085Z,61.90
2022-12-19T05:33:26.112Z,60.12
2022-12-19T05:34:26.073Z,64.05
2022-12-19T05:35:26.068Z,61.45
2022-12-19T05:36:32.186Z,62.98
2022-12-19T05:37:28.063Z,63.06
2022-12-19T05:38:26.068Z,61.56
2022-12-19T05:39:26.034Z,56.21
2022-12-19T05:40:26.032Z,60.80
2022-12-19T05:41:26.018Z,62.06
2022-12-19T05:42:26.009Z,62.29
2022-12-19T05:43:26.044Z,60.22
2022-12-19T05:44:25.996Z,63.81
2022-12-19T05:45:26.063Z,59.60
2022-12-19T05:46:26.041Z,61.46
2022-12-19T05:47:25.976Z,65.63
2022-12-19T05:48:25.965Z,60.59
2022-12-19T05:49:25.983Z,58.26
2022-12-19T05:50:25.957Z,60.57
2022-12-19T05:51:25.941Z,60.99
2022-12-19T05:52:25.943Z,65.11
2022-12-19T05:53:26.260Z,58.32
2022-12-19T05:54:26.943Z,58.89
2022-12-19T05:55:25.912Z,64.69
2022-12-19T05:56:25.906Z,57.70
2022-12-19T05:57:25.897Z,59.13
2022-12-19T05:58:25.909Z,59.34
2022-12-19T05:59:25.907Z,60.09
2022-12-19T06:00:25.881Z,58.85
2022-12-19T06:01:26.017Z,65.55
2022-12-19T06:02:25.983Z,62.93
2022-12-19T06:03:25.899Z,58.86
2022-12-19T06:04:25.885Z,60.24
2022-12-19T06:05:25.848Z,61.53
2022-12-19T06:06:25.830Z,60.67
2022-12-19T06:07:25.824Z,60.91
2022-12-19T06:08:25.819Z,64.92
2022-12-19T06:09:25.840Z,61.55
2022-12-19T06:10:25.808Z,60.56
2022-12-19T06:11:25.806Z,59.98
2022-12-19T06:12:25.792Z,61.56
2022-12-19T06:13:25.789Z,62.25
2022-12-19T06:14:25.800Z,60.89
2022-12-19T06:15:25.773Z,54.51
2022-12-19T06:16:25.807Z,59.88
2022-12-19T06:17:25.860Z,60.48
2022-12-19T06:18:25.744Z,64.76
2022-12-19T06:19:25.762Z,61.94
2022-12-19T06:20:25.736Z,57.46
2022-12-19T06:21:25.723Z,61.62
2022-12-19T06:22:25.715Z,59.78
2022-12-19T06:23:25.708Z,58.45
2022-12-19T06:24:25.725Z,61.35
2022-12-19T06:25:25.698Z,59.08
2022-12-19T06:26:25.689Z,60.62
2022-12-19T06:27:25.681Z,61.99
2022-12-19T06:28:25.672Z,62.75
2022-12-19T06:29:25.694Z,58.96
2022-12-19T06:30:25.655Z,60.76
2022-12-19T06:31:25.685Z,61.17
2022-12-19T06:32:25.640Z,56.78
2022-12-19T06:33:25.736Z,60.69
2022-12-19T06:34:55.202Z,57.32
2022-12-19T06:35:27.620Z,56.81
2022-12-19T06:36:25.618Z,58.21
2022-12-19T06:37:25.608Z,62.67
2022-12-19T06:38:25.597Z,61.33
2022-12-19T06:39:25.613Z,59.85
2022-12-19T06:40:25.581Z,60.82
2022-12-19T06:41:25.579Z,61.73
2022-12-19T06:42:25.629Z,63.08
2022-12-19T06:43:25.561Z,63.14
2022-12-19T06:44:25.579Z,59.61
2022-12-19T06:45:25.590Z,62.34
2022-12-19T06:46:25.539Z,62.45
2022-12-19T06:47:25.532Z,61.62
2022-12-19T06:48:25.532Z,61.88
2022-12-19T06:49:25.677Z,58.30
2022-12-19T06:50:25.507Z,59.82
2022-12-19T06:51:25.501Z,60.16
2022-12-19T06:52:25.490Z,61.55
2022-12-19T06:53:25.485Z,62.66
2022-12-19T06:54:25.499Z,56.39
2022-12-19T06:55:25.469Z,59.19
2022-12-19T06:56:25.457Z,63.18
2022-12-19T06:57:25.447Z,60.22
2022-12-19T06:58:25.447Z,56.98
2022-12-19T06:59:25.460Z,59.88
2022-12-19T07:00:25.430Z,57.83
2022-12-19T07:01:25.540Z,58.62
2022-12-19T07:02:25.512Z,54.51
2022-12-19T07:03:25.413Z,54.95
2022-12-19T07:04:25.428Z,59.44
2022-12-19T07:05:25.476Z,55.28
2022-12-19T07:06:25.385Z,58.29
2022-12-19T07:07:25.382Z,57.87
2022-12-19T07:08:25.373Z,58.49
2022-12-19T07:09:25.390Z,57.33
2022-12-19T07:10:25.407Z,55.01
2022-12-19T07:11:25.353Z,57.06
2022-12-19T07:12:25.344Z,56.96
2022-12-19T07:13:25.339Z,54.42
2022-12-19T07:14:25.357Z,56.91
2022-12-19T07:15:25.324Z,59.84
2022-12-19T07:16:25.337Z,57.52
2022-12-19T07:17:25.315Z,53.42
2022-12-19T07:18:25.302Z,55.93
2022-12-19T07:19:25.321Z,55.51
2022-12-19T07:20:25.286Z,58.49
2022-12-19T07:21:25.349Z,60.65
2022-12-19T07:22:25.274Z,57.80
2022-12-19T07:23:25.271Z,55.40
2022-12-19T07:24:25.287Z,54.71
2022-12-19T07:25:25.251Z,54.46
2022-12-19T07:26:25.251Z,56.68
2022-12-19T07:27:28.545Z,58.72
2022-12-19T07:28:26.236Z,57.36
2022-12-19T07:29:25.255Z,59.62
2022-12-19T07:30:25.219Z,57.81
2022-12-19T07:31:25.236Z,58.81
2022-12-19T07:32:25.204Z,55.11
2022-12-19T07:33:25.196Z,54.39
2022-12-19T07:34:25.218Z,61.21
2022-12-19T07:35:25.189Z,57.75
2022-12-19T07:36:25.178Z,56.78
2022-12-19T07:37:25.241Z,59.96
2022-12-19T07:38:25.159Z,56.12
2022-12-19T07:39:25.152Z,56.82
2022-12-19T07:40:25.174Z,55.58
2022-12-19T07:41:25.137Z,62.09
2022-12-19T07:42:29.344Z,57.80
2022-12-19T07:43:27.121Z,56.14
2022-12-19T07:44:25.125Z,55.52
2022-12-19T07:45:25.138Z,52.75
2022-12-19T07:46:25.103Z,56.27
2022-12-19T07:47:25.092Z,59.02
2022-12-19T07:48:25.087Z,55.94
2022-12-19T07:49:25.076Z,51.32
2022-12-19T07:50:25.102Z,56.81
2022-12-19T07:51:25.083Z,54.34
2022-12-19T07:52:25.059Z,57.59
2022-12-19T07:53:25.134Z,58.44
2022-12-19T07:54:25.042Z,58.41
2022-12-19T07:55:25.080Z,55.17
2022-12-19T07:56:25.032Z,55.64
2022-12-19T07:57:25.021Z,56.46
2022-12-19T07:58:25.009Z,58.71
2022-12-19T07:59:29.750Z,55.66
2022-12-19T08:00:27.021Z,54.66
2022-12-19T08:01:25.027Z,56.23
2022-12-19T08:02:25.066Z,56.48
2022-12-19T08:03:25.001Z,59.32
2022-12-19T08:04:24.969Z,58.18
2022-12-19T08:05:24.987Z,56.28
2022-12-19T08:06:24.953Z,55.15
2022-12-19T08:07:24.946Z,55.90
2022-12-19T08:08:24.936Z,58.97
2022-12-19T08:09:25.002Z,54.14
2022-12-19T08:10:24.947Z,59.00
2022-12-19T08:11:24.910Z,58.87
2022-12-19T08:12:24.899Z,53.40
2022-12-19T08:13:25.895Z,56.65
2022-12-19T08:14:24.889Z,54.02
2022-12-19T08:15:24.915Z,57.82
2022-12-19T08:16:24.951Z,58.17
2022-12-19T08:17:24.912Z,55.22
2022-12-19T08:18:24.863Z,58.76
2022-12-19T08:19:27.634Z,59.15
2022-12-19T08:20:25.868Z,59.38
2022-12-19T08:21:25.101Z,56.22
2022-12-19T08:22:24.881Z,55.73
2022-12-19T08:23:24.827Z,56.06
2022-12-19T08:24:24.817Z,60.45
2022-12-19T08:25:25.107Z,55.27
2022-12-19T08:26:24.805Z,59.40
2022-12-19T08:27:24.795Z,59.42
2022-12-19T08:28:24.786Z,55.97
2022-12-19T08:29:24.775Z,57.87
2022-12-19T08:30:24.796Z,56.85
2022-12-19T08:31:24.786Z,56.24
2022-12-19T08:32:24.759Z,58.59
2022-12-19T08:33:24.755Z,59.29
2022-12-19T08:34:24.748Z,60.42
2022-12-19T08:35:24.758Z,55.73
2022-12-19T08:36:24.725Z,58.98
2022-12-19T08:37:24.714Z,59.90
2022-12-19T08:38:24.709Z,57.19
2022-12-19T08:39:24.700Z,54.27
2022-12-19T08:40:24.734Z,53.59
2022-12-19T08:41:24.766Z,60.86
2022-12-19T08:42:24.683Z,59.98
2022-12-19T08:43:24.682Z,56.87
2022-12-19T08:44:24.671Z,61.09
2022-12-19T08:45:24.683Z,57.52
2022-12-19T08:46:24.702Z,55.88
2022-12-19T08:47:24.647Z,53.92
2022-12-19T08:48:24.647Z,56.62
2022-12-19T08:49:24.657Z,60.53
2022-12-19T08:50:24.651Z,55.83
2022-12-19T08:51:24.620Z,58.42
2022-12-19T08:52:24.608Z,56.61
2022-12-19T08:53:26.664Z,60.30
2022-12-19T08:54:25.681Z,60.02
2022-12-19T08:55:24.622Z,56.31
2022-12-19T08:56:24.582Z,55.49
2022-12-19T08:57:24.665Z,57.53
2022-12-19T08:58:24.571Z,58.63
2022-12-19T08:59:30.855Z,59.20
2022-12-19T09:00:25.662Z,60.73
2022-12-19T09:01:24.635Z,59.61
2022-12-19T09:02:24.858Z,55.35
2022-12-19T09:03:24.746Z,56.69
2022-12-19T09:05:58.724Z,61.61
2022-12-19T09:06:04.062Z,61.88
2022-12-19T09:06:25.544Z,62.38
2022-12-19T09:07:24.504Z,56.55
2022-12-19T09:08:24.500Z,60.70
2022-12-19T09:09:24.491Z,54.86
2022-12-19T09:10:24.557Z,59.50
2022-12-19T09:11:24.480Z,61.53
2022-12-19T09:12:24.480Z,62.06
2022-12-19T09:13:24.668Z,57.19
2022-12-19T09:14:24.451Z,56.23
2022-12-19T09:15:24.472Z,57.67
2022-12-19T09:16:24.477Z,60.49
2022-12-19T09:17:24.462Z,61.91
2022-12-19T09:18:24.431Z,62.61
2022-12-19T09:19:24.443Z,59.63
2022-12-19T09:20:24.443Z,61.10
2022-12-19T09:21:25.368Z,61.93
2022-12-19T09:22:27.810Z,63.99
2022-12-19T09:23:25.379Z,57.86
2022-12-19T09:24:24.378Z,59.39
2022-12-19T09:25:24.397Z,58.82
2022-12-19T09:26:24.368Z,57.68
2022-12-19T09:27:24.368Z,56.46
2022-12-19T09:28:28.192Z,61.29
2022-12-19T09:29:25.348Z,59.96
2022-12-19T09:30:24.370Z,59.02
2022-12-19T09:31:24.378Z,58.99
2022-12-19T09:32:24.318Z,60.42
2022-12-19T09:33:24.317Z,64.59
2022-12-19T09:34:24.895Z,53.24
2022-12-19T09:35:30.104Z,59.70
2022-12-19T09:36:26.290Z,57.58
2022-12-19T09:37:24.281Z,61.81
2022-12-19T09:38:24.287Z,54.97
2022-12-19T09:39:24.279Z,52.20
2022-12-19T09:40:24.260Z,54.27
2022-12-19T09:41:24.281Z,59.48
2022-12-19T09:42:24.244Z,58.41
2022-12-19T09:43:24.251Z,60.76
2022-12-19T09:44:24.226Z,66.44
2022-12-19T09:45:32.174Z,57.82
2022-12-19T09:46:25.259Z,58.03
2022-12-19T09:47:24.208Z,59.25
2022-12-19T09:48:25.057Z,65.00
2022-12-19T09:49:25.192Z,59.35
2022-12-19T09:50:24.211Z,63.51
2022-12-19T09:51:24.203Z,59.16
2022-12-19T09:52:24.163Z,57.70
2022-12-19T09:53:24.160Z,59.05
2022-12-19T09:54:24.154Z,64.18
2022-12-19T09:55:24.139Z,60.62
2022-12-19T09:56:24.163Z,56.07
2022-12-19T09:57:24.130Z,64.21
2022-12-19T09:58:24.120Z,60.21
2022-12-19T09:59:27.608Z,62.69
2022-12-19T10:00:25.132Z,60.48
2022-12-19T10:01:24.287Z,64.23
2022-12-19T10:02:24.305Z,56.10
2022-12-19T10:03:24.207Z,58.66
2022-12-19T10:04:24.071Z,62.34
2022-12-19T10:05:46.657Z,58.68
2022-12-19T10:07:14.444Z,62.45
2022-12-19T10:07:48.459Z,60.55
2022-12-19T10:08:26.074Z,62.04
2022-12-19T10:10:12.440Z,61.27
2022-12-19T10:12:35.067Z,59.96
2022-12-19T10:12:42.832Z,62.05
2022-12-19T10:12:44.973Z,62.08
2022-12-19T10:13:24.996Z,62.86
2022-12-19T10:14:24.028Z,62.61
2022-12-19T10:15:23.987Z,61.80
2022-12-19T10:16:24.023Z,59.25
2022-12-19T10:17:25.371Z,63.10
2022-12-19T10:18:24.958Z,62.53
2022-12-19T10:19:23.951Z,57.16
2022-12-19T10:20:23.947Z,60.52
2022-12-19T10:21:42.895Z,60.06
2022-12-19T10:22:25.933Z,61.05
2022-12-19T10:23:23.924Z,58.17
2022-12-19T10:24:23.915Z,61.32
2022-12-19T10:25:23.907Z,59.70
2022-12-19T10:26:30.108Z,55.97
2022-12-19T10:27:24.884Z,62.68
2022-12-19T10:28:23.899Z,60.48
2022-12-19T10:29:23.875Z,63.41
2022-12-19T10:30:23.888Z,63.61
2022-12-19T10:31:23.956Z,63.14
2022-12-19T10:32:23.876Z,60.92
2022-12-19T10:33:23.953Z,61.37
2022-12-19T10:34:23.857Z,61.93
2022-12-19T10:35:23.843Z,57.75
2022-12-19T10:36:41.956Z,64.77
2022-12-19T10:37:35.215Z,58.52
2022-12-19T10:38:24.851Z,63.34
2022-12-19T10:39:23.809Z,65.18
2022-12-19T10:40:28.119Z,59.76
2022-12-19T10:41:24.832Z,61.87
2022-12-19T10:42:23.802Z,61.97
2022-12-19T10:43:32.819Z,62.55
2022-12-19T10:44:25.767Z,59.58
2022-12-19T10:45:23.804Z,55.37
2022-12-19T10:46:23.759Z,59.40
2022-12-19T10:47:23.773Z,59.82
2022-12-19T10:48:30.328Z,59.50
2022-12-19T10:49:24.836Z,60.40
2022-12-19T10:50:23.737Z,60.16
2022-12-19T10:51:23.721Z,61.56
2022-12-19T10:52:23.725Z,61.51
2022-12-19T10:53:23.690Z,61.06
2022-12-19T10:54:27.562Z,56.38
2022-12-19T10:55:24.674Z,61.59
2022-12-19T10:56:23.674Z,56.46
2022-12-19T10:57:23.715Z,61.30
2022-12-19T10:58:23.686Z,59.35
2022-12-19T10:59:23.645Z,58.03
2022-12-19T11:00:23.635Z,63.07
2022-12-19T11:01:23.877Z,56.42
2022-12-19T11:02:23.757Z,59.68
2022-12-19T11:03:23.794Z,63.03
2022-12-19T11:04:23.720Z,61.11
2022-12-19T11:05:23.792Z,63.16
2022-12-19T11:06:23.665Z,59.00
2022-12-19T11:07:23.610Z,63.32
2022-12-19T11:08:23.577Z,63.65
2022-12-19T11:09:23.562Z,60.91
2022-12-19T11:11:55.013Z,60.13
2022-12-19T11:12:41.336Z,57.78
2022-12-19T11:16:14.626Z,58.83
2022-12-19T11:16:36.477Z,56.61
2022-12-19T11:18:53.641Z,61.88
2022-12-19T11:19:13.645Z,62.21
2022-12-19T11:22:04.913Z,63.49
2022-12-19T11:23:34.081Z,60.18
2022-12-19T11:27:59.131Z,58.15
2022-12-19T11:29:17.974Z,60.70
2022-12-19T11:29:42.226Z,59.18
2022-12-19T11:29:44.791Z,63.00
2022-12-19T11:29:54.647Z,60.91
2022-12-19T11:30:08.652Z,61.01
2022-12-19T11:30:37.133Z,60.09
2022-12-19T11:30:38.373Z,63.54
2022-12-19T11:30:44.493Z,60.23
2022-12-19T11:30:45.504Z,60.89
2022-12-19T11:30:48.668Z,62.21
2022-12-19T11:32:32.113Z,62.89
2022-12-19T11:32:39.572Z,63.72
2022-12-19T11:33:25.410Z,61.83
2022-12-19T11:34:23.397Z,66.65
2022-12-19T11:35:24.736Z,59.73
2022-12-19T11:36:23.365Z,61.05
2022-12-19T11:37:23.378Z,64.25
2022-12-19T11:38:23.349Z,61.80
2022-12-19T11:39:23.348Z,62.84
2022-12-19T11:40:23.334Z,60.56
2022-12-19T11:41:23.335Z,63.21
2022-12-19T11:42:23.320Z,63.70
2022-12-19T11:43:43.771Z,60.37
2022-12-19T11:44:25.303Z,59.03
2022-12-19T11:45:23.297Z,63.25
2022-12-19T11:46:23.289Z,62.19
2022-12-19T11:47:23.325Z,60.86
2022-12-19T11:48:23.278Z,63.76
2022-12-19T11:49:23.270Z,63.99
2022-12-19T11:50:23.258Z,62.10
2022-12-19T11:51:23.269Z,61.06
2022-12-19T11:53:02.151Z,63.64
2022-12-19T11:53:25.329Z,61.85
2022-12-19T11:54:23.226Z,63.28
2022-12-19T11:55:23.226Z,64.95
2022-12-19T11:56:23.290Z,62.36
2022-12-19T11:57:23.203Z,58.88
2022-12-19T11:58:23.215Z,59.75
2022-12-19T11:59:23.184Z,64.30
2022-12-19T12:00:23.174Z,61.64
2022-12-19T12:01:23.216Z,63.39
2022-12-19T12:02:23.164Z,63.49
2022-12-19T12:03:23.214Z,61.13
2022-12-19T12:04:24.221Z,61.91
2022-12-19T12:05:23.139Z,57.57
2022-12-19T12:06:26.650Z,59.71
2022-12-19T12:08:48.141Z,60.31
2022-12-19T12:10:14.036Z,61.37
2022-12-19T12:13:43.154Z,60.71
2022-12-19T12:15:04.317Z,62.37
2022-12-19T12:15:38.357Z,62.51
2022-12-19T12:19:16.587Z,59.68
2022-12-19T12:23:32.710Z,63.41
2022-12-19T12:27:03.172Z,61.25
2022-12-19T12:27:04.822Z,62.89
2022-12-19T12:28:50.626Z,63.11
2022-12-19T12:30:05.536Z,59.31
2022-12-19T12:31:04.849Z,62.94
2022-12-19T12:31:17.849Z,58.22
2022-12-19T12:31:18.283Z,63.68
2022-12-19T12:31:26.086Z,61.61
2022-12-19T12:31:31.630Z,62.66
2022-12-19T12:31:32.537Z,64.94
2022-12-19T12:31:39.472Z,62.53
2022-12-19T12:31:40.919Z,61.47
2022-12-19T12:31:43.659Z,64.85
2022-12-19T12:31:46.586Z,62.09
2022-12-19T12:31:49.682Z,60.09
2022-12-19T12:31:50.062Z,61.24
2022-12-19T12:32:05.787Z,63.65
2022-12-19T12:35:16.516Z,60.13
2022-12-19T12:35:31.716Z,59.27
2022-12-19T12:35:40.928Z,58.77
2022-12-19T12:37:54.118Z,61.60
2022-12-19T12:38:27.297Z,61.74
2022-12-19T12:39:28.208Z,60.11
2022-12-19T12:40:24.884Z,55.82
2022-12-19T12:41:22.861Z,61.52
2022-12-19T12:42:22.849Z,60.61
2022-12-19T12:43:22.863Z,60.26
2022-12-19T12:44:32.525Z,58.12
2022-12-19T12:45:23.847Z,57.41
2022-12-19T12:46:22.854Z,62.41
2022-12-19T12:47:22.811Z,60.31
2022-12-19T12:48:22.828Z,56.82
2022-12-19T12:49:22.800Z,58.22
2022-12-19T12:50:22.789Z,61.63
2022-12-19T12:51:22.803Z,59.62
2022-12-19T12:52:22.786Z,59.74
2022-12-19T12:53:22.806Z,62.12
2022-12-19T12:54:22.771Z,59.48
2022-12-19T12:55:22.754Z,59.22
2022-12-19T12:56:22.753Z,56.84
2022-12-19T12:57:22.738Z,59.17